createdAt,value
2024-01-09T00:01:22.560Z,22.63
2024-01-09T00:03:49.326Z,22.52
2024-01-09T00:06:16.936Z,17.40
2024-01-09T00:08:44.888Z,16.10
2024-01-09T00:11:15.656Z,17.90
2024-01-09T00:13:42.992Z,21.55
2024-01-09T00:16:09.921Z,14.85
2024-01-09T00:18:36.725Z,17.00
2024-01-09T00:21:03.755Z,15.40
2024-01-09T00:23:30.758Z,14.77
2024-01-09T00:25:57.561Z,18.15
2024-01-09T00:28:24.404Z,16.80
2024-01-09T00:30:51.318Z,19.17
2024-01-09T00:33:18.372Z,16.58
2024-01-09T00:35:45.532Z,19.90
2024-01-09T00:38:12.566Z,19.45
2024-01-09T00:40:41.252Z,15.95
2024-01-09T00:43:08.208Z,11.75
2024-01-09T00:45:38.123Z,14.18
2024-01-09T00:48:06.739Z,11.83
2024-01-09T00:50:33.729Z,11.02
2024-01-09T00:53:00.678Z,11.52
2024-01-09T00:55:27.453Z,12.30
2024-01-09T00:57:54.349Z,13.48
2024-01-09T01:00:21.287Z,10.37
2024-01-09T01:02:48.234Z,15.65
2024-01-09T01:05:16.964Z,13.60
2024-01-09T01:07:44.448Z,14.98
2024-01-09T01:10:18.481Z,12.45
2024-01-09T01:12:46.912Z,11.23
2024-01-09T01:15:13.646Z,13.10
2024-01-09T01:17:40.549Z,13.38
2024-01-09T01:20:08.229Z,14.02
2024-01-09T01:22:34.969Z,13.48
2024-01-09T01:25:01.686Z,16.87
2024-01-09T01:27:28.426Z,13.68
2024-01-09T01:29:55.149Z,15.10
2024-01-09T01:32:21.924Z,13.80
2024-01-09T01:34:48.690Z,11.20
2024-01-09T01:37:15.408Z,13.97
2024-01-09T01:39:42.116Z,13.00
2024-01-09T01:42:08.924Z,14.98
2024-01-09T01:44:36.463Z,13.85
2024-01-09T01:47:04.603Z,13.18
2024-01-09T01:49:31.456Z,13.83
2024-01-09T01:51:58.514Z,10.60
2024-01-09T01:54:25.734Z,12.57
2024-01-09T01:56:53.260Z,12.68
2024-01-09T01:59:23.334Z,12.73
2024-01-09T02:01:50.396Z,13.60
2024-01-09T02:04:20.097Z,9.80
2024-01-09T02:06:47.692Z,12.55
2024-01-09T02:09:16.452Z,12.52
2024-01-09T02:11:43.880Z,13.07
2024-01-09T02:14:10.667Z,9.93
2024-01-09T02:16:37.422Z,8.80
2024-01-09T02:19:04.133Z,12.70
2024-01-09T02:21:30.905Z,11.98
2024-01-09T02:23:57.706Z,13.07
2024-01-09T02:26:46.901Z,10.83
2024-01-09T02:29:24.162Z,9.00
2024-01-09T02:31:52.303Z,13.30
2024-01-09T02:34:19.924Z,13.50
2024-01-09T02:36:46.660Z,10.52
2024-01-09T02:39:13.418Z,11.20
2024-01-09T02:41:40.297Z,14.23
2024-01-09T02:44:07.061Z,10.57
2024-01-09T02:46:33.712Z,11.95
2024-01-09T02:49:00.589Z,16.65
2024-01-09T02:51:27.480Z,14.20
2024-01-09T02:53:54.327Z,15.98
2024-01-09T02:56:21.227Z,12.00
2024-01-09T02:58:48.000Z,11.05
2024-01-09T03:01:14.796Z,9.23
2024-01-09T03:03:41.694Z,11.23
2024-01-09T03:06:08.540Z,14.20
2024-01-09T03:08:35.410Z,10.55
2024-01-09T03:11:02.212Z,12.35
2024-01-09T03:13:28.850Z,12.90
2024-01-09T03:15:55.608Z,12.00
2024-01-09T03:18:22.509Z,11.05
2024-01-09T03:20:49.423Z,10.93
2024-01-09T03:23:16.313Z,12.82
2024-01-09T03:25:43.029Z,12.95
2024-01-09T03:28:09.740Z,11.97
2024-01-09T03:30:36.429Z,15.25
2024-01-09T03:33:03.363Z,13.68
2024-01-09T03:35:30.172Z,11.05
2024-01-09T03:37:57.029Z,11.15
2024-01-09T03:40:23.715Z,9.30
2024-01-09T03:42:50.449Z,12.88
2024-01-09T03:45:17.184Z,13.35
2024-01-09T03:47:44.037Z,13.05
2024-01-09T03:50:10.829Z,12.70
2024-01-09T03:52:37.719Z,11.73
2024-01-09T03:55:04.969Z,9.93
2024-01-09T03:57:31.699Z,10.52
2024-01-09T03:59:58.380Z,10.75
2024-01-09T04:02:25.042Z,15.05
2024-01-09T04:04:51.862Z,12.67
2024-01-09T04:07:18.582Z,14.90
2024-01-09T04:09:45.249Z,13.65
2024-01-09T04:12:12.069Z,11.63
2024-01-09T04:14:38.979Z,13.77
2024-01-09T04:17:05.762Z,17.07
2024-01-09T04:19:32.731Z,12.40
2024-01-09T04:22:00.056Z,12.23
2024-01-09T04:24:26.802Z,10.38
2024-01-09T04:26:53.483Z,12.98
2024-01-09T04:29:20.234Z,13.43
2024-01-09T04:31:47.195Z,11.68
2024-01-09T04:34:13.975Z,14.55
2024-01-09T04:36:40.726Z,12.05
2024-01-09T04:39:07.454Z,10.38
2024-01-09T04:41:34.245Z,10.67
2024-01-09T04:44:01.024Z,11.57
2024-01-09T04:46:27.864Z,10.40
2024-01-09T04:48:54.808Z,14.57
2024-01-09T04:51:21.559Z,12.10
2024-01-09T04:53:48.317Z,11.43
2024-01-09T04:56:15.079Z,13.40
2024-01-09T04:58:41.793Z,12.02
2024-01-09T05:01:12.604Z,13.93
2024-01-09T05:03:39.525Z,12.68
2024-01-09T05:06:06.484Z,12.33
2024-01-09T05:08:33.362Z,17.13
2024-01-09T05:11:00.030Z,15.43
2024-01-09T05:13:27.425Z,15.13
2024-01-09T05:15:54.130Z,8.98
2024-01-09T05:18:20.985Z,25.33
2024-01-09T05:20:47.809Z,12.05
2024-01-09T05:23:14.656Z,11.90
2024-01-09T05:25:41.417Z,16.88
2024-01-09T05:28:08.191Z,15.38
2024-01-09T05:30:34.987Z,13.70
2024-01-09T05:33:02.038Z,17.05
2024-01-09T05:35:28.855Z,14.98
2024-01-09T05:38:04.768Z,15.93
2024-01-09T05:40:37.430Z,19.88
2024-01-09T05:43:04.346Z,22.80
2024-01-09T05:45:31.220Z,26.30
2024-01-09T05:47:57.993Z,25.23
2024-01-09T05:50:24.732Z,31.65
2024-01-09T05:52:51.470Z,21.08
2024-01-09T05:55:18.224Z,20.07
2024-01-09T05:57:45.008Z,17.90
2024-01-09T06:00:12.474Z,19.30
2024-01-09T06:02:39.290Z,17.85
2024-01-09T06:05:06.683Z,18.17
2024-01-09T06:07:33.342Z,19.47
2024-01-09T06:10:00.266Z,20.23
2024-01-09T06:12:27.050Z,16.25
2024-01-09T06:14:53.798Z,23.38
2024-01-09T06:17:20.562Z,14.10
2024-01-09T06:19:47.313Z,17.93
2024-01-09T06:22:14.030Z,17.60
2024-01-09T06:24:40.918Z,14.65
2024-01-09T06:27:07.634Z,19.52
2024-01-09T06:29:34.387Z,13.93
2024-01-09T06:32:01.118Z,19.63
2024-01-09T06:34:28.007Z,19.50
2024-01-09T06:36:54.732Z,19.48
2024-01-09T06:39:21.672Z,24.05
2024-01-09T06:41:48.450Z,23.30
2024-01-09T06:44:15.124Z,22.50
2024-01-09T06:46:41.827Z,29.42
2024-01-09T06:49:08.642Z,26.05
2024-01-09T06:51:35.825Z,38.08
2024-01-09T06:54:02.728Z,28.05
2024-01-09T06:56:29.496Z,30.47
2024-01-09T06:58:56.624Z,22.50
2024-01-09T07:01:23.560Z,16.00
2024-01-09T07:03:50.438Z,27.92
2024-01-09T07:06:17.467Z,29.23
2024-01-09T07:08:44.432Z,21.33
2024-01-09T07:11:11.215Z,23.98
2024-01-09T07:13:37.967Z,23.35
2024-01-09T07:16:05.061Z,30.15
2024-01-09T07:18:32.010Z,21.08
2024-01-09T07:20:59.287Z,20.43
2024-01-09T07:23:26.348Z,23.80
2024-01-09T07:25:53.130Z,16.30
2024-01-09T07:28:20.037Z,14.98
2024-01-09T07:30:47.380Z,16.05
2024-01-09T07:33:14.345Z,15.87
2024-01-09T07:35:41.269Z,16.42
2024-01-09T07:38:08.296Z,20.63
2024-01-09T07:40:35.124Z,17.10
2024-01-09T07:43:02.126Z,16.05
2024-01-09T07:45:30.955Z,15.43
2024-01-09T07:47:58.833Z,14.68
2024-01-09T07:50:26.073Z,19.35
2024-01-09T07:52:52.880Z,27.35
2024-01-09T07:55:19.698Z,22.88
2024-01-09T07:57:46.474Z,24.20
2024-01-09T08:00:14.373Z,24.55
2024-01-09T08:02:41.135Z,24.35
2024-01-09T08:05:08.268Z,23.60
2024-01-09T08:07:35.044Z,18.67
2024-01-09T08:10:01.840Z,19.30
2024-01-09T08:12:28.546Z,17.42
2024-01-09T08:14:55.603Z,20.45
2024-01-09T08:17:22.628Z,14.88
2024-01-09T08:19:49.659Z,15.13
2024-01-09T08:22:16.458Z,18.53
2024-01-09T08:24:43.192Z,15.07
2024-01-09T08:27:09.918Z,18.45
2024-01-09T08:29:36.647Z,19.08
2024-01-09T08:32:03.628Z,16.90
2024-01-09T08:34:30.600Z,20.87
2024-01-09T08:36:57.403Z,25.60
2024-01-09T08:39:24.337Z,22.60
2024-01-09T08:41:51.127Z,21.15
2024-01-09T08:44:18.944Z,18.80
2024-01-09T08:46:46.284Z,22.03
2024-01-09T08:49:14.281Z,20.65
2024-01-09T08:51:42.332Z,12.82
2024-01-09T08:54:09.213Z,19.83
2024-01-09T08:56:37.265Z,19.98
2024-01-09T08:59:04.519Z,12.97
2024-01-09T09:01:36.952Z,10.93
2024-01-09T09:04:04.357Z,17.95
2024-01-09T09:06:31.386Z,27.70
2024-01-09T09:08:58.243Z,26.40
2024-01-09T09:11:25.036Z,21.93
2024-01-09T09:13:51.899Z,17.85
2024-01-09T09:16:19.181Z,14.63
2024-01-09T09:18:46.501Z,10.38
2024-01-09T09:21:13.906Z,8.80
2024-01-09T09:23:41.063Z,19.13
2024-01-09T09:26:07.990Z,11.30
2024-01-09T09:28:41.089Z,11.82
2024-01-09T09:31:17.556Z,11.90
2024-01-09T09:33:44.618Z,12.77
2024-01-09T09:36:13.359Z,15.97
2024-01-09T09:38:40.503Z,10.88
2024-01-09T09:41:16.897Z,11.90
2024-01-09T09:43:56.323Z,12.07
2024-01-09T09:46:27.831Z,10.05
2024-01-09T09:48:55.465Z,13.00
2024-01-09T09:51:26.817Z,10.75
2024-01-09T09:53:55.617Z,16.73
2024-01-09T09:56:23.095Z,13.98
2024-01-09T09:58:50.207Z,17.20
2024-01-09T10:01:18.955Z,11.77
2024-01-09T10:04:02.588Z,8.23
2024-01-09T10:06:30.570Z,13.93
2024-01-09T10:08:58.034Z,14.45
2024-01-09T10:11:25.721Z,13.13
2024-01-09T10:13:54.104Z,15.17
2024-01-09T10:16:20.901Z,14.68
2024-01-09T10:18:48.587Z,16.38
2024-01-09T10:21:15.450Z,18.13
2024-01-09T10:23:43.313Z,29.88
2024-01-09T10:26:13.477Z,20.10
2024-01-09T10:28:40.264Z,17.13
2024-01-09T10:31:08.681Z,17.50
2024-01-09T10:33:42.330Z,15.65
2024-01-09T10:36:10.427Z,13.02
2024-01-09T10:38:37.366Z,13.13
2024-01-09T10:41:17.493Z,16.17
2024-01-09T10:43:45.020Z,15.13
2024-01-09T10:46:12.268Z,13.07
2024-01-09T10:48:43.242Z,17.42
2024-01-09T10:51:14.642Z,14.17
2024-01-09T10:53:42.754Z,18.08
2024-01-09T10:56:10.777Z,16.65
2024-01-09T10:58:39.071Z,17.73
2024-01-09T11:01:06.112Z,20.85
2024-01-09T11:03:33.073Z,20.43
2024-01-09T11:06:01.061Z,26.75
2024-01-09T11:08:29.037Z,27.23
2024-01-09T11:10:56.282Z,26.35
2024-01-09T11:13:24.822Z,30.27
2024-01-09T11:15:55.741Z,25.17
2024-01-09T11:18:24.732Z,29.08
2024-01-09T11:21:07.654Z,23.77
2024-01-09T11:24:01.922Z,21.17
2024-01-09T11:26:32.524Z,26.77
2024-01-09T11:29:00.641Z,25.23
2024-01-09T11:31:32.358Z,21.60
2024-01-09T11:34:02.861Z,24.75
2024-01-09T11:36:35.018Z,16.17
2024-01-09T11:39:02.425Z,13.75
2024-01-09T11:41:34.383Z,20.37
2024-01-09T11:44:05.902Z,16.70
2024-01-09T11:46:39.740Z,16.42
2024-01-09T11:49:08.663Z,31.35
2024-01-09T11:51:36.124Z,14.43
2024-01-09T11:54:04.689Z,15.70
2024-01-09T11:56:32.178Z,17.30
2024-01-09T11:58:59.432Z,12.60
2024-01-09T12:01:26.578Z,16.30
2024-01-09T12:03:59.783Z,19.00
2024-01-09T12:06:32.074Z,16.00
2024-01-09T12:08:59.368Z,21.48
2024-01-09T12:11:26.606Z,14.38
2024-01-09T12:14:01.476Z,16.63
2024-01-09T12:16:31.223Z,19.70
2024-01-09T12:18:58.764Z,17.17
2024-01-09T12:21:32.221Z,14.57
2024-01-09T12:24:19.583Z,19.67
2024-01-09T12:26:50.484Z,16.48
2024-01-09T12:29:17.520Z,17.08
2024-01-09T12:31:44.685Z,17.47
2024-01-09T12:34:11.723Z,18.67
2024-01-09T12:36:40.895Z,24.60
2024-01-09T12:39:12.542Z,21.42
2024-01-09T12:41:40.516Z,16.80
2024-01-09T12:44:14.081Z,19.87
2024-01-09T12:46:48.653Z,21.02
2024-01-09T12:49:15.935Z,17.42
2024-01-09T12:51:43.362Z,22.27
2024-01-09T12:54:15.913Z,19.08
2024-01-09T12:56:42.742Z,23.30
2024-01-09T12:59:11.089Z,26.95
2024-01-09T13:01:37.968Z,22.10
2024-01-09T13:04:04.861Z,14.48
2024-01-09T13:06:31.794Z,10.13
2024-01-09T13:08:58.816Z,16.90
2024-01-09T13:11:25.792Z,20.40
2024-01-09T13:13:54.607Z,15.50
2024-01-09T13:16:22.215Z,17.13
2024-01-09T13:18:49.059Z,16.00
2024-01-09T13:21:15.998Z,11.50
2024-01-09T13:23:49.481Z,13.50
2024-01-09T13:26:19.057Z,20.23
2024-01-09T13:31:16.019Z,16.60
2024-01-09T13:33:43.107Z,12.50
2024-01-09T13:36:10.172Z,7.53
2024-01-09T13:38:37.194Z,9.77
2024-01-09T13:41:06.268Z,5.95
2024-01-09T13:43:33.301Z,7.85
2024-01-09T13:46:02.782Z,9.20
2024-01-09T13:48:29.686Z,9.45
2024-01-09T13:53:29.953Z,8.63
2024-01-09T13:55:58.229Z,6.30
2024-01-09T13:58:25.193Z,5.20
2024-01-09T14:00:52.374Z,3.83
2024-01-09T14:03:19.838Z,5.13
2024-01-09T14:05:46.754Z,4.93
2024-01-09T14:08:13.779Z,6.00
2024-01-09T14:10:41.221Z,5.93
2024-01-09T14:13:10.230Z,6.13
2024-01-09T14:15:38.527Z,8.20
2024-01-09T14:18:10.279Z,8.88
2024-01-09T14:20:37.095Z,8.52
2024-01-09T14:23:04.974Z,8.40
2024-01-09T14:25:32.029Z,9.50
2024-01-09T14:27:58.740Z,14.43
2024-01-09T14:30:25.456Z,16.25
2024-01-09T14:32:52.410Z,12.25
2024-01-09T14:35:20.697Z,6.53
2024-01-09T14:37:47.559Z,7.57
2024-01-09T14:40:14.407Z,8.25
2024-01-09T14:42:42.361Z,12.10
2024-01-09T14:45:11.784Z,7.80
2024-01-09T14:47:39.102Z,9.00
2024-01-09T14:50:11.083Z,7.85
2024-01-09T14:52:37.938Z,8.10
2024-01-09T14:55:05.740Z,5.20
2024-01-09T14:57:33.301Z,5.68
2024-01-09T14:59:59.982Z,6.30
2024-01-09T15:02:26.733Z,6.95
2024-01-09T15:04:53.807Z,6.78
2024-01-09T15:07:20.569Z,7.60
2024-01-09T15:09:49.418Z,9.18
2024-01-09T15:12:16.308Z,9.60
2024-01-09T15:14:43.265Z,11.10
2024-01-09T15:17:10.270Z,10.82
2024-01-09T15:19:37.943Z,12.75
2024-01-09T15:22:05.546Z,9.85
2024-01-09T15:24:32.301Z,7.47
2024-01-09T15:26:58.997Z,6.03
2024-01-09T15:29:25.772Z,13.77
2024-01-09T15:31:52.890Z,10.43
2024-01-09T15:34:19.871Z,12.45
2024-01-09T15:36:46.597Z,6.30
2024-01-09T15:39:13.384Z,8.93
2024-01-09T15:41:40.243Z,7.05
2024-01-09T15:44:10.572Z,6.53
2024-01-09T15:46:38.401Z,11.23
2024-01-09T15:49:05.193Z,6.27
2024-01-09T15:51:32.490Z,7.25
2024-01-09T15:53:59.663Z,8.05
2024-01-09T15:56:27.708Z,26.77
2024-01-09T15:58:55.573Z,9.38
2024-01-09T16:01:26.616Z,10.83
2024-01-09T16:03:54.936Z,8.85
2024-01-09T16:06:23.264Z,7.88
2024-01-09T16:08:52.618Z,4.57
2024-01-09T16:11:21.196Z,11.30
2024-01-09T16:13:49.862Z,11.33
2024-01-09T16:16:18.912Z,11.15
2024-01-09T16:18:47.666Z,15.88
2024-01-09T16:21:15.241Z,11.70
2024-01-09T16:23:42.641Z,10.20
2024-01-09T16:26:10.664Z,7.27
2024-01-09T16:28:38.180Z,11.32
2024-01-09T16:31:05.408Z,7.82
2024-01-09T16:33:32.779Z,5.15
2024-01-09T16:35:59.572Z,6.30
2024-01-09T16:38:27.379Z,18.13
2024-01-09T16:40:56.451Z,9.95
2024-01-09T16:43:23.194Z,8.90
2024-01-09T16:45:50.060Z,8.30
2024-01-09T16:48:31.322Z,9.70
2024-01-09T16:51:05.477Z,14.03
2024-01-09T16:53:32.445Z,6.55
2024-01-09T16:55:59.287Z,5.30
2024-01-09T16:58:26.561Z,9.80
2024-01-09T17:00:53.380Z,5.90
2024-01-09T17:03:20.327Z,6.17
2024-01-09T17:05:47.246Z,6.55
2024-01-09T17:08:14.161Z,5.07
2024-01-09T17:10:41.085Z,9.02
2024-01-09T17:13:07.938Z,8.88
2024-01-09T17:15:34.666Z,7.87
2024-01-09T17:18:02.760Z,14.00
2024-01-09T17:20:30.254Z,15.23
2024-01-09T17:22:57.219Z,9.02
2024-01-09T17:25:26.834Z,13.02
2024-01-09T17:27:54.270Z,12.27
2024-01-09T17:30:22.066Z,7.97
2024-01-09T17:32:49.057Z,12.10
2024-01-09T17:35:16.582Z,9.73
2024-01-09T17:37:43.662Z,9.70
2024-01-09T17:40:11.157Z,9.73
2024-01-09T17:42:39.270Z,14.30
2024-01-09T17:45:07.447Z,12.90
2024-01-09T17:47:34.484Z,16.83
2024-01-09T17:50:01.975Z,19.30
2024-01-09T17:52:29.152Z,10.40
2024-01-09T17:54:57.155Z,5.10
2024-01-09T17:57:24.124Z,8.65
2024-01-09T17:59:51.016Z,8.07
2024-01-09T18:02:19.736Z,9.90
2024-01-09T18:04:47.809Z,8.30
2024-01-09T18:07:14.829Z,8.52
2024-01-09T18:09:44.468Z,12.05
2024-01-09T18:12:12.736Z,7.88
2024-01-09T18:14:41.534Z,6.35
2024-01-09T18:17:09.048Z,7.73
2024-01-09T18:19:36.725Z,13.57
2024-01-09T18:22:03.573Z,9.38
2024-01-09T18:24:31.006Z,11.68
2024-01-09T18:26:57.952Z,10.32
2024-01-09T18:29:24.915Z,4.20
2024-01-09T18:31:55.368Z,4.20
2024-01-09T18:34:23.008Z,8.85
2024-01-09T18:36:50.845Z,9.48
2024-01-09T18:39:22.775Z,9.55
2024-01-09T18:41:57.239Z,6.33
2024-01-09T18:44:25.037Z,5.72
2024-01-09T18:46:51.808Z,9.63
2024-01-09T18:49:19.244Z,6.68
2024-01-09T18:51:46.003Z,18.05
2024-01-09T18:54:13.081Z,15.07
2024-01-09T18:56:40.210Z,35.25
2024-01-09T18:59:07.014Z,17.33
2024-01-09T19:01:33.866Z,11.18
2024-01-09T19:04:01.707Z,7.90
2024-01-09T19:06:28.861Z,8.90
2024-01-09T19:08:55.524Z,7.35
2024-01-09T19:11:24.295Z,8.43
2024-01-09T19:13:50.989Z,6.18
2024-01-09T19:16:17.785Z,8.73
2024-01-09T19:18:44.609Z,6.73
2024-01-09T19:21:11.456Z,5.50
2024-01-09T19:23:38.155Z,6.10
2024-01-09T19:26:05.677Z,7.72
2024-01-09T19:28:32.461Z,4.55
2024-01-09T19:31:02.660Z,4.77
2024-01-09T19:33:29.715Z,3.80
2024-01-09T19:35:56.873Z,3.53
2024-01-09T19:38:23.668Z,6.68
2024-01-09T19:40:50.458Z,8.68
2024-01-09T19:43:19.891Z,5.17
2024-01-09T19:45:46.571Z,9.32
2024-01-09T19:48:13.909Z,4.18
2024-01-09T19:50:40.630Z,7.20
2024-01-09T19:53:07.396Z,6.18
2024-01-09T19:55:34.199Z,5.57
2024-01-09T19:58:01.267Z,6.68
2024-01-09T20:00:28.790Z,9.88
2024-01-09T20:02:56.496Z,7.57
2024-01-09T20:05:23.433Z,7.90
2024-01-09T20:07:50.410Z,10.00
2024-01-09T20:10:17.314Z,7.30
2024-01-09T20:12:47.226Z,10.88
2024-01-09T20:15:17.315Z,10.10
2024-01-09T20:17:49.205Z,5.15
2024-01-09T20:20:19.256Z,7.43
2024-01-09T20:22:46.107Z,8.88
2024-01-09T20:25:12.871Z,9.10
2024-01-09T20:27:40.774Z,7.30
2024-01-09T20:30:10.552Z,6.38
2024-01-09T20:32:40.800Z,3.97
2024-01-09T20:35:11.246Z,4.38
2024-01-09T20:37:38.150Z,4.00
2024-01-09T20:40:06.004Z,4.20
2024-01-09T20:42:32.948Z,6.20
2024-01-09T20:45:02.468Z,8.40
2024-01-09T20:47:32.168Z,3.95
2024-01-09T20:49:59.917Z,3.25
2024-01-09T20:52:27.054Z,5.43
2024-01-09T20:54:53.819Z,5.00
2024-01-09T20:57:20.995Z,4.07
2024-01-09T20:59:48.098Z,5.93
2024-01-09T21:02:17.210Z,6.40
2024-01-09T21:04:44.622Z,6.93
2024-01-09T21:07:11.673Z,4.60
2024-01-09T21:09:41.653Z,6.47
2024-01-09T21:12:08.700Z,4.68
2024-01-09T21:14:35.503Z,5.57
2024-01-09T21:17:02.394Z,8.23
2024-01-09T21:19:30.576Z,3.60
2024-01-09T21:21:59.262Z,6.70
2024-01-09T21:24:26.590Z,7.80
2024-01-09T21:26:53.338Z,5.82
2024-01-09T21:29:20.141Z,4.47
2024-01-09T21:31:47.575Z,4.00
2024-01-09T21:34:15.844Z,4.33
2024-01-09T21:36:42.711Z,5.32
2024-01-09T21:39:09.458Z,3.75
2024-01-09T21:41:36.444Z,4.97
2024-01-09T21:44:03.261Z,4.30
2024-01-09T21:46:30.130Z,4.13
2024-01-09T21:48:57.059Z,4.20
2024-01-09T21:51:32.137Z,4.65
2024-01-09T21:53:58.848Z,3.72
2024-01-09T21:56:25.933Z,6.50
2024-01-09T21:58:52.755Z,3.93
2024-01-09T22:01:19.512Z,5.00
2024-01-09T22:03:46.903Z,4.32
2024-01-09T22:06:13.631Z,6.43
2024-01-09T22:08:40.388Z,4.65
2024-01-09T22:11:07.282Z,6.53
2024-01-09T22:13:34.106Z,4.25
2024-01-09T22:16:00.858Z,3.55
2024-01-09T22:18:29.190Z,6.10
2024-01-09T22:20:55.937Z,5.57
2024-01-09T22:23:22.727Z,5.43
2024-01-09T22:25:49.575Z,4.60
2024-01-09T22:28:16.284Z,4.95
2024-01-09T22:30:43.074Z,3.83
2024-01-09T22:33:11.499Z,4.35
2024-01-09T22:35:42.374Z,3.37
2024-01-09T22:38:09.292Z,4.18
2024-01-09T22:40:36.264Z,4.55
2024-01-09T22:43:03.214Z,4.75
2024-01-09T22:45:30.001Z,6.75
2024-01-09T22:47:57.081Z,3.90
2024-01-09T22:50:24.066Z,3.70
2024-01-09T22:52:50.937Z,6.20
2024-01-09T22:55:17.714Z,5.30
2024-01-09T22:57:44.466Z,6.50
2024-01-09T23:00:20.941Z,4.27
2024-01-09T23:02:48.106Z,6.05
2024-01-09T23:05:19.069Z,5.15
2024-01-09T23:07:46.622Z,3.60
2024-01-09T23:10:13.872Z,6.07
2024-01-09T23:12:40.957Z,3.80
2024-01-09T23:15:08.900Z,4.55
2024-01-09T23:17:36.941Z,5.45
2024-01-09T23:20:05.615Z,4.63
2024-01-09T23:22:32.466Z,5.90
2024-01-09T23:24:59.246Z,4.13
2024-01-09T23:27:25.967Z,4.32
2024-01-09T23:29:53.535Z,4.22
2024-01-09T23:32:20.281Z,4.82
2024-01-09T23:34:53.544Z,5.75
2024-01-09T23:37:28.050Z,3.93
2024-01-09T23:39:55.013Z,5.75
2024-01-09T23:42:21.753Z,6.82
2024-01-09T23:44:48.656Z,3.63
2024-01-09T23:47:15.610Z,3.85
2024-01-09T23:49:42.418Z,3.53
2024-01-09T23:52:09.517Z,5.72
2024-01-09T23:54:36.240Z,3.67
2024-01-09T23:57:02.966Z,4.75
2024-01-09T23:59:29.654Z,3.25
